Time;durP1;ratioP1;P1;durP2;ratioP2;P2;SDS_P1;SDS_P2;PMS_P1;PMS_P2;Temp;Humidity;BMP_temperature;BMP_pressure;BME280_temperature;BME280_humidity;BME280_pressure;Samples;Min_cycle;Max_cycle;Signal;HPM_P1;HPM_P2
2021/10/09 00:01:32;;;;;;;119.13;52.48;;;;;;;0.27;73.35;95888.27;1650285;85;21084;-60
2021/10/09 00:04:01;;;;;;;112.55;50.28;;;;;;;0.29;72.89;95886.79;1643053;86;21102;-60
2021/10/09 00:06:28;;;;;;;112.92;49.40;;;;;;;0.29;72.70;95890.84;1651105;86;21010;-59
2021/10/09 00:08:56;;;;;;;93.03;44.88;;;;;;;0.18;72.80;95884.41;1648977;87;21005;-60
2021/10/09 00:11:34;;;;;;;88.17;44.18;;;;;;;0.04;73.07;95881.38;1647097;86;20979;-59
2021/10/09 00:13:51;;;;;;;105.47;47.08;;;;;;;-0.04;73.14;95883.51;1644435;86;20959;-59
2021/10/09 00:16:19;;;;;;;106.90;50.03;;;;;;;-0.17;73.27;95879.34;1645392;87;21224;-59
2021/10/09 00:18:46;;;;;;;121.67;49.80;;;;;;;-0.24;73.74;95887.30;1641978;85;21069;-60
2021/10/09 00:21:13;;;;;;;122.60;51.28;;;;;;;-0.26;73.87;95885.51;1637660;86;21707;-60
2021/10/09 00:23:39;;;;;;;112.85;51.85;;;;;;;-0.22;73.89;95881.73;1637058;86;21535;-60
2021/10/09 00:26:06;;;;;;;127.58;53.73;;;;;;;-0.19;73.81;95876.20;1632490;87;21030;-60
2021/10/09 00:28:33;;;;;;;123.58;50.75;;;;;;;-0.14;74.01;95873.22;1638601;87;21076;-60
2021/10/09 00:31:00;;;;;;;141.82;58.98;;;;;;;-0.08;73.81;95875.31;1637358;86;21119;-59
2021/10/09 00:33:26;;;;;;;146.68;62.67;;;;;;;-0.04;73.77;95878.10;1643653;85;20975;-60
2021/10/09 00:35:53;;;;;;;157.10;61.80;;;;;;;-0.02;73.75;95877.39;1640341;87;21039;-60
2021/10/09 00:38:20;;;;;;;170.92;65.03;;;;;;;-0.03;73.79;95872.32;1635509;86;21073;-60
2021/10/09 00:40:48;;;;;;;149.15;60.67;;;;;;;0.02;73.71;95871.48;1642282;87;21210;-61
2021/10/09 00:43:14;;;;;;;156.80;63.45;;;;;;;0.03;73.46;95862.81;1606458;87;21150;-61
2021/10/09 00:45:55;;;;;;;136.68;58.13;;;;;;;-0.02;73.42;95869.28;1639220;86;21150;-59
2021/10/09 00:48:22;;;;;;;129.07;56.65;;;;;;;-0.04;73.44;95863.23;1640354;86;20990;-60
2021/10/09 00:50:48;;;;;;;127.12;52.80;;;;;;;-0.11;73.34;95869.81;1638305;86;21015;-60
2021/10/09 00:53:15;;;;;;;123.92;49.77;;;;;;;-0.16;73.23;95860.63;1636456;85;22179;-60
2021/10/09 00:55:42;;;;;;;103.35;45.30;;;;;;;-0.23;73.38;95861.82;1636650;86;20944;-60
2021/10/09 00:58:09;;;;;;;103.50;44.75;;;;;;;-0.25;73.77;95854.05;1636586;86;21058;-60
2021/10/09 01:00:36;;;;;;;82.05;38.53;;;;;;;-0.28;73.87;95853.96;1639108;85;21062;-60
2021/10/09 01:03:04;;;;;;;85.67;36.05;;;;;;;-0.32;73.83;95857.16;1644015;87;21126;-60
2021/10/09 01:05:32;;;;;;;76.30;36.88;;;;;;;-0.38;74.11;95858.56;1641473;87;21177;-60
2021/10/09 01:07:59;;;;;;;74.80;37.50;;;;;;;-0.44;74.08;95848.58;1639409;87;20960;-60
2021/10/09 01:10:27;;;;;;;83.97;39.55;;;;;;;-0.52;74.24;95846.06;1637274;86;21059;-61
2021/10/09 01:12:54;;;;;;;82.75;38.05;;;;;;;-0.53;74.51;95848.55;1631438;87;21031;-60
2021/10/09 01:15:24;;;;;;;85.05;39.65;;;;;;;-0.52;74.56;95847.41;1640239;86;21483;-60
2021/10/09 01:17:53;;;;;;;98.22;44.13;;;;;;;-0.51;74.46;95844.38;1637244;87;21140;-61
2021/10/09 01:20:21;;;;;;;90.05;40.30;;;;;;;-0.52;74.54;95845.51;1635153;87;21451;-58
2021/10/09 01:22:49;;;;;;;103.92;43.25;;;;;;;-0.51;74.63;95843.57;1631543;87;21015;-60
2021/10/09 01:25:17;;;;;;;105.27;45.43;;;;;;;-0.48;74.63;95844.22;1637281;87;21067;-61
2021/10/09 01:27:44;;;;;;;127.38;49.42;;;;;;;-0.43;74.55;95843.97;1634531;87;21546;-60
2021/10/09 01:30:13;;;;;;;125.55;50.88;;;;;;;-0.46;74.23;95843.30;1634478;87;21019;-60
2021/10/09 01:32:41;;;;;;;104.80;46.73;;;;;;;-0.46;74.20;95841.95;1636339;87;21086;-60
2021/10/09 01:35:09;;;;;;;107.52;44.73;;;;;;;-0.45;74.17;95840.26;1637822;86;21078;-60
2021/10/09 01:37:38;;;;;;;110.20;44.05;;;;;;;-0.45;74.04;95844.90;1639292;87;21062;-61
2021/10/09 01:40:07;;;;;;;127.65;46.95;;;;;;;-0.56;73.90;95839.80;1620627;87;21082;-60
2021/10/09 01:42:36;;;;;;;122.05;50.33;;;;;;;-0.74;74.01;95841.28;1641500;87;22313;-60
2021/10/09 01:45:06;;;;;;;113.00;45.38;;;;;;;-0.87;74.34;95837.88;1636061;86;21063;-60
2021/10/09 01:47:42;;;;;;;139.12;57.35;;;;;;;-0.93;74.54;95834.43;1636826;87;22148;-60
2021/10/09 01:50:10;;;;;;;125.38;54.53;;;;;;;-0.96;74.57;95831.08;1638148;86;21138;-60
2021/10/09 01:52:36;;;;;;;139.45;52.40;;;;;;;-1.01;74.84;95834.02;1638005;87;21079;-60
2021/10/09 01:55:04;;;;;;;137.75;52.78;;;;;;;-0.96;74.92;95840.53;1634061;87;21078;-60
2021/10/09 01:57:31;;;;;;;110.00;45.20;;;;;;;-0.92;75.13;95829.25;1637310;87;20968;-60
2021/10/09 01:59:58;;;;;;;105.97;44.08;;;;;;;-0.85;74.88;95832.91;1637523;87;21053;-60
2021/10/09 02:02:27;;;;;;;126.90;47.30;;;;;;;-0.79;74.58;95828.81;1633473;86;21071;-60
2021/10/09 02:04:53;;;;;;;116.70;45.90;;;;;;;-0.72;74.45;95835.76;1634919;87;21053;-60
2021/10/09 02:07:23;;;;;;;118.67;46.45;;;;;;;-0.68;74.25;95833.13;1636951;87;21142;-60
2021/10/09 02:09:51;;;;;;;134.25;49.63;;;;;;;-0.66;74.11;95829.50;1636345;87;20944;-60
2021/10/09 02:12:20;;;;;;;129.70;52.30;;;;;;;-0.63;73.91;95838.28;1637868;87;20999;-60
2021/10/09 02:14:52;;;;;;;115.85;49.48;;;;;;;-0.64;73.80;95829.94;1636622;87;21004;-61
2021/10/09 02:25:46;;;;;;;106.27;45.17;;;;;;;-0.71;74.18;95828.42;1637918;86;21444;-61
2021/10/09 02:28:22;;;;;;;104.67;42.23;;;;;;;-0.67;74.03;95838.74;1643198;86;21479;-61
2021/10/09 02:30:52;;;;;;;144.40;54.58;;;;;;;-0.70;73.73;95833.48;1637502;87;20967;-62
2021/10/09 02:33:22;;;;;;;134.50;54.55;;;;;;;-0.82;73.71;95836.81;1635907;87;21265;-60
2021/10/09 02:35:48;;;;;;;123.62;48.08;;;;;;;-0.90;73.99;95835.09;1641901;85;20974;-60
2021/10/09 02:38:15;;;;;;;101.95;45.88;;;;;;;-0.94;74.26;95831.52;1638124;87;21606;-61
2021/10/09 02:40:43;;;;;;;109.95;45.03;;;;;;;-0.94;74.34;95830.94;1636212;87;21157;-61
2021/10/09 02:43:10;;;;;;;110.72;45.63;;;;;;;-0.93;74.45;95828.45;1621373;87;21073;-60
2021/10/09 02:45:37;;;;;;;166.80;56.80;;;;;;;-0.91;74.32;95830.81;1633638;86;21139;-60
2021/10/09 02:48:07;;;;;;;180.57;59.85;;;;;;;-0.91;74.14;95835.66;1635346;86;21028;-60
2021/10/09 02:50:36;;;;;;;126.47;48.52;;;;;;;-0.90;74.18;95826.43;1636046;86;21047;-60
2021/10/09 02:53:03;;;;;;;123.55;49.98;;;;;;;-0.86;73.94;95838.66;1636202;87;20972;-60
2021/10/09 02:55:31;;;;;;;129.42;49.77;;;;;;;-0.84;73.89;95835.83;1641528;87;21117;-61
2021/10/09 02:57:58;;;;;;;139.37;52.60;;;;;;;-0.84;73.82;95839.08;1640756;87;21147;-61
2021/10/09 03:00:24;;;;;;;124.10;49.53;;;;;;;-0.85;73.84;95834.81;1642194;86;21008;-61
2021/10/09 03:02:51;;;;;;;120.53;44.60;;;;;;;-0.89;73.67;95843.41;1621301;87;20995;-61
2021/10/09 03:05:18;;;;;;;120.08;50.23;;;;;;;-0.98;73.67;95841.45;1635618;86;21628;-61
2021/10/09 03:07:45;;;;;;;105.90;46.45;;;;;;;-1.11;73.82;95839.36;1638316;87;21071;-60
2021/10/09 03:10:13;;;;;;;115.97;43.50;;;;;;;-1.18;74.01;95847.87;1642744;87;21496;-60
2021/10/09 03:12:42;;;;;;;89.62;39.92;;;;;;;-1.22;74.31;95852.36;1640996;87;21108;-60
2021/10/09 03:15:10;;;;;;;94.60;41.28;;;;;;;-1.18;74.57;95854.62;1641885;86;20959;-61
2021/10/09 03:17:38;;;;;;;111.88;45.70;;;;;;;-1.15;74.64;95852.57;1636944;86;21479;-60
2021/10/09 03:20:08;;;;;;;108.57;46.30;;;;;;;-1.12;74.47;95855.92;1648427;85;21006;-60
2021/10/09 03:22:35;;;;;;;101.30;41.58;;;;;;;-1.17;74.52;95861.59;1649965;86;21139;-60
2021/10/09 03:25:04;;;;;;;91.92;41.18;;;;;;;-1.18;74.45;95853.27;1647814;86;20966;-60
2021/10/09 03:27:31;;;;;;;95.62;43.92;;;;;;;-1.18;74.32;95862.72;1650941;86;21462;-61
2021/10/09 03:29:58;;;;;;;89.13;40.83;;;;;;;-1.28;74.16;95868.59;1652080;86;20998;-61
2021/10/09 03:32:25;;;;;;;99.75;40.50;;;;;;;-1.34;74.42;95868.64;1648070;87;21018;-61
2021/10/09 03:34:53;;;;;;;86.28;38.10;;;;;;;-1.39;74.53;95871.56;1646194;87;21015;-61
2021/10/09 03:37:21;;;;;;;85.92;37.33;;;;;;;-1.37;74.57;95870.65;1649962;86;20982;-60
2021/10/09 03:39:50;;;;;;;95.85;40.50;;;;;;;-1.33;74.59;95868.86;1651345;86;22107;-60
2021/10/09 03:42:23;;;;;;;94.47;39.83;;;;;;;-1.29;74.65;95872.43;1650813;86;21513;-61
2021/10/09 03:45:09;;;;;;;93.78;41.95;;;;;;;-1.26;74.49;95871.73;1647591;86;21029;-60
2021/10/09 03:47:44;;;;;;;104.00;44.73;;;;;;;-1.23;74.50;95871.05;1644305;86;21867;-59
2021/10/09 03:50:07;;;;;;;105.92;43.75;;;;;;;-1.17;74.17;95864.28;1647191;86;21049;-61
2021/10/09 03:52:41;;;;;;;104.07;45.92;;;;;;;-1.09;74.15;95872.78;1649431;86;24859;-60
2021/10/09 03:55:11;;;;;;;88.50;39.50;;;;;;;-0.96;73.96;95870.23;1649825;86;21446;-60
2021/10/09 03:57:38;;;;;;;116.53;46.63;;;;;;;-0.83;73.92;95873.86;1647175;86;21002;-59
2021/10/09 04:00:09;;;;;;;118.97;51.20;;;;;;;-0.75;73.52;95876.95;1647167;86;21150;-60
2021/10/09 04:02:39;;;;;;;131.20;59.35;;;;;;;-0.73;73.41;95877.41;1647700;85;20959;-60
2021/10/09 04:05:08;;;;;;;134.03;59.73;;;;;;;-0.73;73.33;95880.66;1647968;87;21010;-61
2021/10/09 04:07:36;;;;;;;115.82;55.48;;;;;;;-0.65;73.71;95882.40;1650740;86;21643;-61
2021/10/09 04:10:06;;;;;;;93.37;41.48;;;;;;;-0.56;73.48;95874.92;1649325;86;21033;-62
2021/10/09 04:12:33;;;;;;;83.60;39.20;;;;;;;-0.52;73.22;95878.48;1652642;86;21958;-61
2021/10/09 04:15:01;;;;;;;84.92;34.90;;;;;;;-0.53;73.04;95872.87;1648885;86;21561;-63
2021/10/09 04:17:28;;;;;;;85.47;36.08;;;;;;;-0.55;73.00;95879.19;1648841;86;21074;-61
2021/10/09 04:19:55;;;;;;;80.45;38.70;;;;;;;-0.60;72.89;95874.05;1627341;87;21184;-62
2021/10/09 04:22:22;;;;;;;84.52;37.03;;;;;;;-0.66;72.78;95872.73;1634727;87;21090;-61
2021/10/09 04:24:49;;;;;;;73.83;36.40;;;;;;;-0.76;73.08;95881.36;1646202;86;21195;-62
2021/10/09 04:27:17;;;;;;;81.15;37.05;;;;;;;-0.85;73.14;95880.73;1646303;86;21197;-61
2021/10/09 04:29:44;;;;;;;82.20;34.27;;;;;;;-0.97;73.29;95883.52;1644361;86;21058;-61
2021/10/09 04:32:11;;;;;;;89.28;38.10;;;;;;;-1.08;73.63;95883.80;1648632;86;20983;-60
2021/10/09 04:34:38;;;;;;;95.75;40.52;;;;;;;-1.11;73.92;95881.21;1648257;87;20998;-61
2021/10/09 04:37:05;;;;;;;113.88;53.45;;;;;;;-1.06;74.30;95889.62;1648193;86;21160;-61
2021/10/09 04:39:32;;;;;;;94.42;45.90;;;;;;;-0.99;74.09;95880.39;1649151;86;21082;-60
2021/10/09 04:42:02;;;;;;;83.00;39.45;;;;;;;-0.96;74.12;95881.04;1650072;86;21006;-61
2021/10/09 04:44:31;;;;;;;84.45;35.85;;;;;;;-0.91;74.15;95888.88;1646144;86;21030;-61
2021/10/09 04:46:58;;;;;;;101.38;40.20;;;;;;;-0.92;74.23;95892.13;1651129;86;20963;-61
2021/10/09 04:49:26;;;;;;;83.03;38.92;;;;;;;-0.95;74.17;95894.17;1649496;85;21112;-62
2021/10/09 04:51:54;;;;;;;90.32;40.40;;;;;;;-0.94;74.26;95897.09;1648753;86;21702;-61
2021/10/09 04:54:20;;;;;;;73.85;35.88;;;;;;;-0.90;74.27;95899.90;1644431;87;21383;-61
2021/10/09 04:56:47;;;;;;;63.95;31.27;;;;;;;-0.82;74.23;95898.94;1648875;86;21128;-61
2021/10/09 04:59:14;;;;;;;72.82;35.75;;;;;;;-0.81;73.84;95903.23;1649720;86;21023;-61
2021/10/09 05:01:43;;;;;;;71.72;34.88;;;;;;;-0.84;73.85;95903.91;1648159;85;21251;-61
2021/10/09 05:04:12;;;;;;;73.42;35.35;;;;;;;-0.83;74.08;95904.12;1646586;87;21003;-60
2021/10/09 05:06:40;;;;;;;76.40;39.13;;;;;;;-0.71;74.14;95906.77;1647006;86;21006;-61
2021/10/09 05:09:08;;;;;;;71.07;37.67;;;;;;;-0.60;73.78;95903.78;1649201;86;21085;-59
2021/10/09 05:11:35;;;;;;;78.25;37.20;;;;;;;-0.56;73.55;95908.11;1646155;86;21018;-61
2021/10/09 05:14:02;;;;;;;80.80;39.33;;;;;;;-0.49;73.55;95905.61;1648051;87;21216;-61
2021/10/09 05:16:30;;;;;;;92.45;42.75;;;;;;;-0.40;73.33;95906.20;1647183;85;21077;-62
2021/10/09 05:18:57;;;;;;;101.62;42.60;;;;;;;-0.31;73.20;95900.63;1641039;86;21073;-62
2021/10/09 05:21:23;;;;;;;102.22;51.37;;;;;;;-0.27;72.81;95904.19;1639859;87;20980;-61
2021/10/09 05:23:50;;;;;;;98.03;48.40;;;;;;;-0.26;72.81;95912.55;1636702;85;21046;-62
2021/10/09 05:26:17;;;;;;;95.95;47.13;;;;;;;-0.22;72.52;95909.35;1646425;86;21095;-61
2021/10/09 05:28:46;;;;;;;80.90;44.33;;;;;;;-0.23;72.49;95905.08;1648010;86;21551;-62
2021/10/09 05:31:27;;;;;;;85.75;42.75;;;;;;;-0.18;72.56;95904.25;1646871;86;20982;-62
2021/10/09 05:33:55;;;;;;;86.60;46.55;;;;;;;-0.11;72.44;95907.66;1648318;86;21050;-62
2021/10/09 05:36:23;;;;;;;88.15;43.10;;;;;;;-0.08;72.38;95906.41;1648406;86;21041;-61
2021/10/09 05:38:51;;;;;;;77.42;42.58;;;;;;;-0.03;72.55;95906.13;1646271;86;21153;-62
2021/10/09 05:41:19;;;;;;;73.07;36.83;;;;;;;0.08;72.65;95917.41;1646975;87;21002;-62
2021/10/09 05:43:48;;;;;;;69.03;34.23;;;;;;;0.22;72.48;95908.84;1650385;86;21097;-63
2021/10/09 05:46:17;;;;;;;69.27;34.63;;;;;;;0.34;72.25;95909.50;1651891;86;21033;-62
2021/10/09 05:48:44;;;;;;;73.67;35.28;;;;;;;0.44;71.97;95904.88;1651326;85;21050;-61
2021/10/09 05:51:30;;;;;;;76.85;37.93;;;;;;;0.47;71.82;95905.55;1628139;87;21046;-61
2021/10/09 05:54:41;;;;;;;76.42;37.15;;;;;;;0.56;71.77;95912.88;1645482;86;20963;-62
2021/10/09 05:56:42;;;;;;;81.02;38.73;;;;;;;0.68;71.57;95910.05;1623757;85;20986;-62
2021/10/09 06:37:18;;;;;;;88.10;45.83;;;;;;;1.01;71.85;95925.23;1625302;85;21079;-62
2021/10/09 06:45:56;;;;;;;86.50;42.23;;;;;;;1.33;70.96;95924.47;1613452;88;21333;-64
2021/10/09 06:48:24;;;;;;;76.33;39.30;;;;;;;1.42;70.66;95928.52;1610718;88;21578;-63
2021/10/09 07:01:44;;;;;;;97.78;45.63;;;;;;;1.64;70.16;95933.17;1616964;87;20976;-62
2021/10/09 07:04:12;;;;;;;80.10;35.65;;;;;;;1.63;70.17;95935.67;1616795;88;21061;-62
2021/10/09 07:06:41;;;;;;;55.75;26.20;;;;;;;1.65;70.24;95938.80;1616605;88;21016;-62
2021/10/09 07:09:10;;;;;;;62.93;31.65;;;;;;;1.71;69.95;95937.35;1621292;88;21034;-62
2021/10/09 07:11:39;;;;;;;51.33;26.70;;;;;;;1.75;69.78;95936.27;1614773;88;21481;-62
2021/10/09 07:14:07;;;;;;;54.98;28.02;;;;;;;1.79;69.67;95937.70;1616610;87;21087;-61
2021/10/09 07:16:36;;;;;;;47.75;23.40;;;;;;;1.81;69.67;95938.12;1617116;88;21031;-61
2021/10/09 07:19:03;;;;;;;52.55;25.92;;;;;;;1.86;69.60;95935.89;1630688;87;20993;-62
2021/10/09 07:21:32;;;;;;;49.53;22.82;;;;;;;1.89;69.43;95938.43;1648802;86;21605;-64
2021/10/09 07:23:59;;;;;;;56.85;26.77;;;;;;;1.97;69.53;95938.19;1646304;86;21914;-62
2021/10/09 07:26:26;;;;;;;62.80;26.52;;;;;;;2.06;69.39;95937.94;1646400;87;21058;-63
2021/10/09 07:28:53;;;;;;;79.47;28.73;;;;;;;2.14;69.21;95942.34;1647317;86;20978;-63
2021/10/09 07:31:22;;;;;;;71.55;30.43;;;;;;;2.23;69.04;95938.23;1628212;86;21008;-62
2021/10/09 07:33:48;;;;;;;77.32;32.13;;;;;;;2.38;68.98;95941.93;1635146;86;21089;-62
2021/10/09 07:36:16;;;;;;;81.78;38.53;;;;;;;2.59;68.94;95938.16;1646699;87;21160;-62
2021/10/09 07:38:44;;;;;;;78.87;37.60;;;;;;;2.83;68.83;95940.45;1650848;86;20962;-62
2021/10/09 07:41:11;;;;;;;70.97;37.73;;;;;;;2.96;68.70;95941.76;1645711;87;20975;-62
2021/10/09 07:43:39;;;;;;;72.90;39.40;;;;;;;3.11;68.27;95939.42;1645778;86;21078;-63
2021/10/09 07:46:06;;;;;;;76.40;39.60;;;;;;;3.16;68.11;95936.38;1649728;86;21014;-63
2021/10/09 07:48:33;;;;;;;90.15;45.03;;;;;;;3.19;68.43;95941.06;1644743;86;21180;-63
2021/10/09 07:51:00;;;;;;;68.60;36.03;;;;;;;3.26;68.57;95944.65;1648546;87;21079;-63
2021/10/09 07:53:29;;;;;;;68.75;36.65;;;;;;;3.40;68.22;95938.61;1645313;87;21070;-61
2021/10/09 07:55:56;;;;;;;55.98;31.50;;;;;;;3.51;67.98;95946.48;1647913;86;21521;-62
2021/10/09 07:58:22;;;;;;;51.63;28.32;;;;;;;3.62;67.56;95936.52;1647552;87;20986;-62
2021/10/09 08:00:49;;;;;;;49.15;28.27;;;;;;;3.76;67.21;95942.09;1648885;85;21173;-63
2021/10/09 08:03:18;;;;;;;55.35;30.52;;;;;;;3.89;66.27;95940.65;1649822;86;21081;-62
2021/10/09 08:05:44;;;;;;;55.03;30.82;;;;;;;4.00;66.18;95939.37;1650165;86;21057;-64
2021/10/09 08:08:11;;;;;;;62.23;32.55;;;;;;;4.04;65.84;95947.79;1650892;87;21019;-63
2021/10/09 08:10:38;;;;;;;58.98;33.80;;;;;;;4.10;65.71;95947.66;1647783;87;21220;-63
2021/10/09 08:13:05;;;;;;;75.40;35.88;;;;;;;4.15;65.62;95947.88;1648435;86;21245;-63
2021/10/09 08:15:32;;;;;;;57.93;33.30;;;;;;;4.20;65.43;95951.04;1650696;86;21013;-63
2021/10/09 08:17:58;;;;;;;61.55;30.45;;;;;;;4.32;65.36;95945.87;1647950;86;20994;-62
2021/10/09 08:20:26;;;;;;;71.22;34.30;;;;;;;4.46;64.66;95944.02;1648965;87;21034;-61
2021/10/09 08:23:06;;;;;;;76.07;38.63;;;;;;;4.54;64.22;95940.77;1649021;87;20974;-62
2021/10/09 08:38:58;;;;;;;53.50;31.37;;;;;;;4.90;63.92;95929.71;1615046;88;21428;-64
2021/10/09 08:41:28;;;;;;;51.37;27.30;;;;;;;4.93;63.65;95933.03;1653861;86;21119;-62
2021/10/09 08:43:55;;;;;;;62.38;34.70;;;;;;;4.99;63.25;95936.95;1648336;87;21078;-63
2021/10/09 08:46:22;;;;;;;72.78;38.92;;;;;;;5.03;62.89;95936.41;1648932;87;20979;-62
2021/10/09 08:48:52;;;;;;;56.95;32.10;;;;;;;5.04;62.53;95935.81;1648854;87;21454;-64
2021/10/09 08:51:27;;;;;;;69.65;32.58;;;;;;;5.02;62.31;95937.57;1626802;86;21110;-63
2021/10/09 08:53:55;;;;;;;72.87;35.58;;;;;;;5.00;62.13;95939.88;1650094;86;20982;-62
2021/10/09 08:56:35;;;;;;;67.20;37.88;;;;;;;5.00;62.44;95937.14;1648374;85;21439;-63
2021/10/09 08:59:13;;;;;;;52.35;28.95;;;;;;;5.02;62.25;95941.66;1635176;86;21477;-63
2021/10/09 09:04:26;;;;;;;62.67;31.20;;;;;;;5.12;62.00;95931.37;1651168;86;21150;-64
2021/10/09 09:09:33;;;;;;;59.67;30.85;;;;;;;5.19;61.55;95930.63;1646094;87;20983;-65
2021/10/09 09:34:34;;;;;;;65.30;28.27;;;;;;;5.57;59.78;95922.58;1649304;86;21557;-62
2021/10/09 09:36:50;;;;;;;56.40;30.10;;;;;;;5.57;59.96;95926.67;1640565;86;20975;-62
2021/10/09 09:39:12;;;;;;;50.98;26.02;;;;;;;5.60;59.81;95919.83;1645739;86;21023;-60
2021/10/09 09:41:49;;;;;;;56.95;27.73;;;;;;;5.71;59.76;95930.77;1650883;86;21091;-63
2021/10/09 09:44:19;;;;;;;75.40;30.95;;;;;;;5.78;59.62;95928.08;1651819;86;21210;-62
2021/10/09 09:47:06;;;;;;;54.85;30.52;;;;;;;5.80;59.53;95929.86;1646050;86;21144;-63
2021/10/09 09:49:34;;;;;;;60.20;28.47;;;;;;;5.84;59.44;95926.55;1635485;86;21127;-64
2021/10/09 09:52:01;;;;;;;50.63;28.50;;;;;;;5.91;59.53;95926.55;1616459;88;21016;-63
2021/10/09 09:54:30;;;;;;;48.80;28.00;;;;;;;6.00;59.42;95929.70;1649490;86;21046;-63
2021/10/09 09:57:00;;;;;;;51.42;26.17;;;;;;;6.06;59.21;95930.86;1650996;86;21156;-63
2021/10/09 09:59:32;;;;;;;47.25;26.93;;;;;;;6.10;58.77;95927.54;1649425;86;21034;-62
2021/10/09 10:02:05;;;;;;;45.15;25.90;;;;;;;6.16;58.85;95919.17;1651023;86;21100;-62
2021/10/09 10:04:34;;;;;;;51.50;24.80;;;;;;;6.18;58.67;95924.42;1652264;86;20978;-63
2021/10/09 10:07:02;;;;;;;53.35;28.45;;;;;;;6.19;59.04;95920.52;1648763;87;20975;-63
2021/10/09 10:09:31;;;;;;;65.65;31.70;;;;;;;6.27;59.42;95918.56;1647928;87;21233;-64
2021/10/09 10:12:02;;;;;;;65.30;34.67;;;;;;;6.35;59.47;95916.05;1651877;87;21420;-62
2021/10/09 10:14:31;;;;;;;60.25;34.18;;;;;;;6.39;59.34;95918.97;1647290;86;21089;-67
2021/10/09 10:17:00;;;;;;;67.97;33.23;;;;;;;6.48;59.37;95919.95;1647092;87;21026;-62
2021/10/09 10:19:57;;;;;;;64.15;33.88;;;;;;;6.53;59.44;95920.30;1643160;85;21047;-64
2021/10/09 10:22:38;;;;;;;60.40;31.52;;;;;;;6.61;59.27;95919.14;1640086;87;21196;-61
2021/10/09 10:25:17;;;;;;;64.27;30.90;;;;;;;6.67;59.36;95908.59;1636427;87;21551;-62
2021/10/09 10:27:45;;;;;;;56.42;30.48;;;;;;;6.74;59.34;95914.80;1639604;87;21466;-62
2021/10/09 10:30:20;;;;;;;52.80;29.42;;;;;;;6.78;59.21;95914.23;1637574;87;21047;-63
2021/10/09 10:32:57;;;;;;;49.83;27.22;;;;;;;6.84;58.99;95913.22;1639173;86;21163;-62
2021/10/09 10:35:36;;;;;;;42.50;24.40;;;;;;;6.93;58.77;95912.23;1636212;86;21115;-62
2021/10/09 10:38:32;;;;;;;43.45;24.85;;;;;;;7.00;58.91;95912.20;1634310;87;21004;-62
2021/10/09 10:41:05;;;;;;;47.62;25.50;;;;;;;7.05;58.85;95915.91;1633839;86;21542;-61
2021/10/09 10:46:38;;;;;;;48.10;27.17;;;;;;;7.17;58.35;95906.08;1634294;87;21035;-62
2021/10/09 10:49:09;;;;;;;47.43;24.82;;;;;;;7.32;58.10;95908.19;1635465;87;21151;-62
2021/10/09 10:51:46;;;;;;;47.15;25.35;;;;;;;7.51;58.33;95909.84;1638210;86;21574;-62
2021/10/09 10:57:03;;;;;;;46.33;25.95;;;;;;;7.90;57.07;95904.14;1633266;87;20987;-65
2021/10/09 10:59:52;;;;;;;47.75;26.52;;;;;;;8.05;56.55;95898.16;1640706;87;21067;-63
2021/10/09 11:02:39;;;;;;;53.98;25.27;;;;;;;8.21;56.05;95899.83;1641605;85;21164;-61
2021/10/09 11:05:10;;;;;;;54.15;26.15;;;;;;;8.34;55.69;95891.31;1639845;87;21035;-62
2021/10/09 11:07:39;;;;;;;45.63;25.37;;;;;;;8.41;55.67;95896.72;1618942;87;21023;-64
2021/10/09 11:10:12;;;;;;;40.33;26.17;;;;;;;8.53;55.30;95893.48;1637219;87;21030;-63
2021/10/09 11:12:46;;;;;;;44.53;24.12;;;;;;;8.63;54.92;95891.22;1640123;86;21105;-62
2021/10/09 11:15:23;;;;;;;44.48;22.93;;;;;;;8.66;54.49;95887.66;1641448;87;21144;-63
2021/10/09 11:18:01;;;;;;;42.83;24.65;;;;;;;8.70;54.38;95891.17;1615676;87;21683;-62
2021/10/09 11:20:33;;;;;;;44.95;26.90;;;;;;;8.77;53.50;95884.23;1636632;87;21565;-63
2021/10/09 11:23:05;;;;;;;51.20;27.73;;;;;;;8.90;53.28;95888.02;1646739;86;21041;-62
2021/10/09 11:25:36;;;;;;;48.23;25.05;;;;;;;9.00;52.92;95879.67;1645068;86;21452;-63
2021/10/09 11:28:06;;;;;;;50.65;27.25;;;;;;;9.10;52.11;95880.13;1647059;86;21103;-63
2021/10/09 11:30:33;;;;;;;40.20;24.35;;;;;;;9.16;51.99;95875.76;1648849;86;21027;-63
2021/10/09 11:33:00;;;;;;;51.30;29.30;;;;;;;9.26;51.94;95876.82;1651038;86;20997;-62
2021/10/09 11:35:35;;;;;;;45.70;24.40;;;;;;;9.35;50.65;95878.46;1644970;86;21495;-62
2021/10/09 11:38:04;;;;;;;35.20;20.15;;;;;;;9.39;47.91;95875.86;1650734;86;21010;-63
2021/10/09 11:40:39;;;;;;;33.92;18.75;;;;;;;9.40;47.32;95869.78;1648383;86;21155;-63
2021/10/09 11:43:13;;;;;;;37.73;20.60;;;;;;;9.47;47.05;95872.43;1646446;86;21161;-63
2021/10/09 11:45:54;;;;;;;60.30;25.85;;;;;;;9.54;45.95;95871.74;1643467;86;21063;-63
2021/10/09 11:56:35;;;;;;;31.73;16.10;;;;;;;9.64;44.26;95864.55;1647054;87;21014;-65
2021/10/09 11:59:04;;;;;;;25.68;16.95;;;;;;;9.63;43.97;95871.23;1629364;87;20990;-62
2021/10/09 12:01:36;;;;;;;34.78;14.78;;;;;;;9.63;43.75;95873.98;1648258;85;21021;-62
2021/10/09 12:04:20;;;;;;;21.87;14.07;;;;;;;9.62;42.89;95866.94;1628858;86;20959;-62
2021/10/09 12:06:53;;;;;;;30.48;14.93;;;;;;;9.60;43.37;95869.31;1642311;86;23191;-63
2021/10/09 12:09:58;;;;;;;32.48;14.43;;;;;;;9.58;42.80;95873.08;1649407;86;20980;-61
2021/10/09 12:12:21;;;;;;;24.63;12.53;;;;;;;9.58;42.69;95875.83;1645836;86;21059;-63
2021/10/09 12:14:53;;;;;;;31.68;17.00;;;;;;;9.56;42.51;95874.85;1648303;86;21058;-64
2021/10/09 12:17:21;;;;;;;29.70;15.27;;;;;;;9.58;43.08;95871.70;1647222;86;21354;-62
2021/10/09 12:20:00;;;;;;;21.62;12.95;;;;;;;9.63;42.60;95864.37;1630797;87;21297;-64
2021/10/09 12:22:30;;;;;;;34.55;15.18;;;;;;;9.68;42.74;95863.89;1651108;86;21053;-62
2021/10/09 12:24:57;;;;;;;24.87;14.73;;;;;;;9.73;42.24;95871.67;1626104;87;21506;-62
2021/10/09 12:27:28;;;;;;;20.62;12.65;;;;;;;9.77;41.48;95866.31;1648505;86;21034;-63
2021/10/09 12:29:59;;;;;;;27.40;12.03;;;;;;;9.82;41.58;95859.58;1644806;86;21053;-63
2021/10/09 12:32:27;;;;;;;28.75;13.22;;;;;;;9.92;41.42;95855.88;1645915;87;21090;-64
2021/10/09 12:35:12;;;;;;;20.75;12.63;;;;;;;9.93;41.20;95853.31;1649532;86;20974;-61
2021/10/09 12:38:05;;;;;;;22.90;12.13;;;;;;;10.01;41.32;95852.02;1648884;86;20977;-62
2021/10/09 12:40:43;;;;;;;27.07;14.15;;;;;;;10.13;40.75;95855.61;1650211;86;20966;-64
2021/10/09 12:43:12;;;;;;;36.13;18.42;;;;;;;10.19;40.58;95841.55;1647638;86;21018;-62
2021/10/09 12:45:41;;;;;;;30.15;14.68;;;;;;;10.38;41.22;95846.34;1645906;86;21985;-62
2021/10/09 12:48:08;;;;;;;21.15;12.00;;;;;;;10.67;40.47;95841.88;1652210;86;21053;-63
2021/10/09 12:50:37;;;;;;;23.83;13.08;;;;;;;10.88;39.54;95843.06;1647730;87;21114;-64
2021/10/09 12:53:05;;;;;;;19.02;11.88;;;;;;;11.13;39.14;95843.34;1646602;86;20966;-62
2021/10/09 12:55:33;;;;;;;20.48;11.83;;;;;;;11.41;38.71;95839.23;1650304;87;21078;-63
2021/10/09 12:58:09;;;;;;;30.20;15.05;;;;;;;11.93;37.53;95839.45;1650861;86;21443;-62
2021/10/09 13:00:33;;;;;;;28.32;14.98;;;;;;;12.79;36.67;95839.09;1648659;86;21470;-65
2021/10/09 13:03:00;;;;;;;35.30;18.37;;;;;;;13.69;35.02;95836.38;1646777;86;21093;-64
2021/10/09 13:05:29;;;;;;;32.20;13.22;;;;;;;14.63;34.31;95840.31;1647729;87;21121;-63
2021/10/09 13:08:00;;;;;;;29.65;14.07;;;;;;;15.16;33.25;95834.47;1650042;86;21006;-63
2021/10/09 13:10:30;;;;;;;25.80;14.15;;;;;;;15.60;32.38;95830.52;1631149;87;21149;-62
2021/10/09 13:12:56;;;;;;;29.02;11.80;;;;;;;16.25;31.31;95825.58;1644958;86;21192;-63
2021/10/09 13:15:23;;;;;;;30.90;12.05;;;;;;;16.92;28.56;95819.45;1649239;85;21011;-61
2021/10/09 13:17:51;;;;;;;30.15;13.85;;;;;;;17.28;29.11;95822.23;1646250;87;21819;-62
2021/10/09 13:20:19;;;;;;;21.68;10.93;;;;;;;17.74;29.65;95818.95;1646479;85;21521;-62
2021/10/09 13:22:47;;;;;;;20.88;12.43;;;;;;;18.28;28.79;95819.56;1645032;86;21543;-61
2021/10/09 13:25:14;;;;;;;21.40;11.53;;;;;;;18.72;28.03;95815.02;1650783;86;20974;-62
2021/10/09 13:27:42;;;;;;;19.60;11.05;;;;;;;19.06;26.51;95811.69;1650078;87;21024;-62
2021/10/09 13:30:11;;;;;;;17.73;10.82;;;;;;;19.19;26.43;95819.20;1650466;85;21422;-61